sensor_id;sensor_type;location;lat;lon;timestamp;P1;durP1;ratioP1;P2;durP2;ratioP2
74487;SDS011;63019;51.080;13.642;2023-08-31T00:00:47;1.80;;;1.30;;
74487;SDS011;63019;51.080;13.642;2023-08-31T00:01:51;2.67;;;1.40;;
74487;SDS011;63019;51.080;13.642;2023-08-31T00:02:56;2.00;;;1.40;;
74487;SDS011;63019;51.080;13.642;2023-08-31T00:04:03;2.13;;;1.20;;
74487;SDS011;63019;51.080;13.642;2023-08-31T00:05:09;2.80;;;1.38;;
74487;SDS011;63019;51.080;13.642;2023-08-31T00:06:12;4.45;;;1.38;;
74487;SDS011;63019;51.080;13.642;2023-08-31T00:07:14;6.07;;;1.50;;
74487;SDS011;63019;51.080;13.642;2023-08-31T00:08:19;2.05;;;1.42;;
74487;SDS011;63019;51.080;13.642;2023-08-31T00:09:23;5.80;;;1.40;;
74487;SDS011;63019;51.080;13.642;2023-08-31T00:10:26;3.33;;;1.50;;
74487;SDS011;63019;51.080;13.642;2023-08-31T00:11:31;1.70;;;1.20;;
74487;SDS011;63019;51.080;13.642;2023-08-31T00:12:35;2.03;;;1.30;;
74487;SDS011;63019;51.080;13.642;2023-08-31T00:13:38;1.70;;;1.40;;
74487;SDS011;63019;51.080;13.642;2023-08-31T00:14:40;4.97;;;1.65;;
74487;SDS011;63019;51.080;13.642;2023-08-31T00:15:43;3.72;;;1.65;;
74487;SDS011;63019;51.080;13.642;2023-08-31T00:16:47;2.95;;;1.40;;
74487;SDS011;63019;51.080;13.642;2023-08-31T00:17:50;6.82;;;1.50;;
74487;SDS011;63019;51.080;13.642;2023-08-31T00:18:56;2.13;;;1.67;;
74487;SDS011;63019;51.080;13.642;2023-08-31T00:20:01;3.90;;;1.63;;
74487;SDS011;63019;51.080;13.642;2023-08-31T00:21:07;4.03;;;1.50;;
74487;SDS011;63019;51.080;13.642;2023-08-31T00:22:11;3.05;;;1.60;;
74487;SDS011;63019;51.080;13.642;2023-08-31T00:23:16;2.38;;;1.45;;
74487;SDS011;63019;51.080;13.642;2023-08-31T00:24:21;1.90;;;1.40;;
74487;SDS011;63019;51.080;13.642;2023-08-31T00:25:29;2.42;;;1.40;;
74487;SDS011;63019;51.080;13.642;2023-08-31T00:26:33;2.25;;;1.40;;
74487;SDS011;63019;51.080;13.642;2023-08-31T00:27:36;2.80;;;1.42;;
74487;SDS011;63019;51.080;13.642;2023-08-31T00:28:38;2.15;;;1.30;;
74487;SDS011;63019;51.080;13.642;2023-08-31T00:29:41;2.20;;;1.20;;
74487;SDS011;63019;51.080;13.642;2023-08-31T00:30:51;4.22;;;1.23;;
74487;SDS011;63019;51.080;13.642;2023-08-31T00:31:56;2.37;;;1.10;;
74487;SDS011;63019;51.080;13.642;2023-08-31T00:32:58;2.10;;;1.20;;
74487;SDS011;63019;51.080;13.642;2023-08-31T00:34:08;2.30;;;1.63;;
74487;SDS011;63019;51.080;13.642;2023-08-31T00:35:13;3.05;;;1.52;;
74487;SDS011;63019;51.080;13.642;2023-08-31T00:36:15;3.10;;;1.33;;
74487;SDS011;63019;51.080;13.642;2023-08-31T00:37:19;3.15;;;1.40;;
74487;SDS011;63019;51.080;13.642;2023-08-31T00:38:23;1.80;;;1.20;;
74487;SDS011;63019;51.080;13.642;2023-08-31T00:39:26;1.77;;;1.20;;
74487;SDS011;63019;51.080;13.642;2023-08-31T00:40:29;2.33;;;1.45;;
74487;SDS011;63019;51.080;13.642;2023-08-31T00:41:35;1.88;;;1.30;;
74487;SDS011;63019;51.080;13.642;2023-08-31T00:42:42;1.77;;;1.20;;
74487;SDS011;63019;51.080;13.642;2023-08-31T00:43:44;3.83;;;1.50;;
74487;SDS011;63019;51.080;13.642;2023-08-31T00:44:52;3.47;;;1.20;;
74487;SDS011;63019;51.080;13.642;2023-08-31T00:45:54;1.30;;;0.93;;
74487;SDS011;63019;51.080;13.642;2023-08-31T00:47:00;2.78;;;1.27;;
74487;SDS011;63019;51.080;13.642;2023-08-31T00:48:06;3.55;;;1.20;;
74487;SDS011;63019;51.080;13.642;2023-08-31T00:49:11;2.05;;;1.08;;
74487;SDS011;63019;51.080;13.642;2023-08-31T00:50:15;1.50;;;1.20;;
74487;SDS011;63019;51.080;13.642;2023-08-31T00:51:18;1.15;;;1.00;;
74487;SDS011;63019;51.080;13.642;2023-08-31T00:52:20;2.05;;;0.88;;
74487;SDS011;63019;51.080;13.642;2023-08-31T00:53:23;1.30;;;0.90;;
74487;SDS011;63019;51.080;13.642;2023-08-31T00:54:28;1.42;;;0.93;;
74487;SDS011;63019;51.080;13.642;2023-08-31T00:55:31;4.40;;;1.10;;
74487;SDS011;63019;51.080;13.642;2023-08-31T00:56:34;1.90;;;1.38;;
74487;SDS011;63019;51.080;13.642;2023-08-31T00:57:36;0.93;;;0.75;;
74487;SDS011;63019;51.080;13.642;2023-08-31T00:58:39;1.00;;;0.70;;
74487;SDS011;63019;51.080;13.642;2023-08-31T00:59:42;1.10;;;0.90;;
74487;SDS011;63019;51.080;13.642;2023-08-31T01:03:12;1.63;;;0.70;;
74487;SDS011;63019;51.080;13.642;2023-08-31T01:04:33;1.60;;;0.70;;
74487;SDS011;63019;51.080;13.642;2023-08-31T01:07:24;1.60;;;0.82;;
74487;SDS011;63019;51.080;13.642;2023-08-31T01:09:13;2.97;;;0.70;;
74487;SDS011;63019;51.080;13.642;2023-08-31T01:11:28;1.25;;;0.70;;
74487;SDS011;63019;51.080;13.642;2023-08-31T01:12:54;1.20;;;0.70;;
74487;SDS011;63019;51.080;13.642;2023-08-31T01:14:19;1.30;;;0.68;;
74487;SDS011;63019;51.080;13.642;2023-08-31T01:15:31;1.83;;;0.80;;
74487;SDS011;63019;51.080;13.642;2023-08-31T01:16:34;1.40;;;0.70;;
74487;SDS011;63019;51.080;13.642;2023-08-31T01:17:41;0.90;;;0.60;;
74487;SDS011;63019;51.080;13.642;2023-08-31T01:18:54;2.15;;;0.80;;
74487;SDS011;63019;51.080;13.642;2023-08-31T01:19:58;1.67;;;0.80;;
74487;SDS011;63019;51.080;13.642;2023-08-31T01:22:21;0.80;;;0.50;;
74487;SDS011;63019;51.080;13.642;2023-08-31T01:24:55;1.15;;;0.52;;
74487;SDS011;63019;51.080;13.642;2023-08-31T01:26:00;1.73;;;0.75;;
74487;SDS011;63019;51.080;13.642;2023-08-31T01:27:03;1.13;;;0.77;;
74487;SDS011;63019;51.080;13.642;2023-08-31T01:28:06;1.20;;;0.60;;
74487;SDS011;63019;51.080;13.642;2023-08-31T01:29:09;5.63;;;1.00;;
74487;SDS011;63019;51.080;13.642;2023-08-31T01:30:13;1.88;;;0.60;;
74487;SDS011;63019;51.080;13.642;2023-08-31T01:31:16;1.30;;;0.50;;
74487;SDS011;63019;51.080;13.642;2023-08-31T01:32:22;1.60;;;0.65;;
74487;SDS011;63019;51.080;13.642;2023-08-31T01:33:24;0.93;;;0.63;;
74487;SDS011;63019;51.080;13.642;2023-08-31T01:34:32;1.95;;;0.85;;
74487;SDS011;63019;51.080;13.642;2023-08-31T01:35:38;4.65;;;0.60;;
74487;SDS011;63019;51.080;13.642;2023-08-31T01:36:46;0.95;;;0.50;;
74487;SDS011;63019;51.080;13.642;2023-08-31T01:37:57;0.80;;;0.50;;
74487;SDS011;63019;51.080;13.642;2023-08-31T01:39:22;0.95;;;0.50;;
74487;SDS011;63019;51.080;13.642;2023-08-31T01:40:34;1.80;;;0.50;;
74487;SDS011;63019;51.080;13.642;2023-08-31T01:41:46;0.55;;;0.40;;
74487;SDS011;63019;51.080;13.642;2023-08-31T01:42:54;1.45;;;0.50;;
74487;SDS011;63019;51.080;13.642;2023-08-31T01:43:58;1.25;;;0.50;;
74487;SDS011;63019;51.080;13.642;2023-08-31T01:45:02;0.80;;;0.32;;
74487;SDS011;63019;51.080;13.642;2023-08-31T01:46:06;1.85;;;0.50;;
74487;SDS011;63019;51.080;13.642;2023-08-31T01:47:09;1.40;;;0.40;;
74487;SDS011;63019;51.080;13.642;2023-08-31T01:48:16;1.27;;;0.40;;
74487;SDS011;63019;51.080;13.642;2023-08-31T01:49:19;1.05;;;0.43;;
74487;SDS011;63019;51.080;13.642;2023-08-31T01:50:25;4.22;;;0.43;;
74487;SDS011;63019;51.080;13.642;2023-08-31T01:51:27;0.40;;;0.40;;
74487;SDS011;63019;51.080;13.642;2023-08-31T01:52:31;2.28;;;0.40;;
74487;SDS011;63019;51.080;13.642;2023-08-31T01:53:33;0.60;;;0.40;;
74487;SDS011;63019;51.080;13.642;2023-08-31T01:54:36;0.30;;;0.25;;
74487;SDS011;63019;51.080;13.642;2023-08-31T01:55:41;0.70;;;0.50;;
74487;SDS011;63019;51.080;13.642;2023-08-31T01:56:55;0.93;;;0.45;;
74487;SDS011;63019;51.080;13.642;2023-08-31T01:57:58;0.95;;;0.50;;
74487;SDS011;63019;51.080;13.642;2023-08-31T01:59:02;0.57;;;0.30;;
74487;SDS011;63019;51.080;13.642;2023-08-31T02:00:39;3.08;;;0.40;;
74487;SDS011;63019;51.080;13.642;2023-08-31T02:01:42;0.70;;;0.30;;
74487;SDS011;63019;51.080;13.642;2023-08-31T02:02:45;0.87;;;0.40;;
74487;SDS011;63019;51.080;13.642;2023-08-31T02:03:48;0.80;;;0.40;;
74487;SDS011;63019;51.080;13.642;2023-08-31T02:04:53;0.98;;;0.40;;
74487;SDS011;63019;51.080;13.642;2023-08-31T02:05:58;0.80;;;0.30;;
74487;SDS011;63019;51.080;13.642;2023-08-31T02:07:01;0.88;;;0.40;;
74487;SDS011;63019;51.080;13.642;2023-08-31T02:08:07;0.40;;;0.30;;
74487;SDS011;63019;51.080;13.642;2023-08-31T02:09:13;0.68;;;0.38;;
74487;SDS011;63019;51.080;13.642;2023-08-31T02:10:16;0.30;;;0.30;;
74487;SDS011;63019;51.080;13.642;2023-08-31T02:11:19;0.63;;;0.50;;
74487;SDS011;63019;51.080;13.642;2023-08-31T02:12:21;0.93;;;0.40;;
74487;SDS011;63019;51.080;13.642;2023-08-31T02:13:24;0.60;;;0.30;;
74487;SDS011;63019;51.080;13.642;2023-08-31T02:14:26;0.98;;;0.40;;
74487;SDS011;63019;51.080;13.642;2023-08-31T02:15:31;0.68;;;0.47;;
74487;SDS011;63019;51.080;13.642;2023-08-31T02:16:33;0.70;;;0.38;;
74487;SDS011;63019;51.080;13.642;2023-08-31T02:17:36;0.47;;;0.40;;
74487;SDS011;63019;51.080;13.642;2023-08-31T02:18:39;1.17;;;0.25;;
74487;SDS011;63019;51.080;13.642;2023-08-31T02:19:41;0.30;;;0.28;;
74487;SDS011;63019;51.080;13.642;2023-08-31T02:20:44;0.88;;;0.40;;
74487;SDS011;63019;51.080;13.642;2023-08-31T02:21:47;3.33;;;0.40;;
74487;SDS011;63019;51.080;13.642;2023-08-31T02:22:49;0.40;;;0.40;;
74487;SDS011;63019;51.080;13.642;2023-08-31T02:23:52;0.90;;;0.30;;
74487;SDS011;63019;51.080;13.642;2023-08-31T02:24:58;0.35;;;0.30;;
74487;SDS011;63019;51.080;13.642;2023-08-31T02:26:02;0.45;;;0.38;;
74487;SDS011;63019;51.080;13.642;2023-08-31T02:27:05;1.00;;;0.40;;
74487;SDS011;63019;51.080;13.642;2023-08-31T02:28:07;0.63;;;0.35;;
74487;SDS011;63019;51.080;13.642;2023-08-31T02:29:11;0.98;;;0.40;;
74487;SDS011;63019;51.080;13.642;2023-08-31T02:30:17;2.00;;;0.40;;
74487;SDS011;63019;51.080;13.642;2023-08-31T02:31:20;0.90;;;0.40;;
74487;SDS011;63019;51.080;13.642;2023-08-31T02:32:50;0.50;;;0.30;;
74487;SDS011;63019;51.080;13.642;2023-08-31T02:33:53;1.20;;;0.40;;
74487;SDS011;63019;51.080;13.642;2023-08-31T02:34:58;0.53;;;0.40;;
74487;SDS011;63019;51.080;13.642;2023-08-31T02:36:01;2.15;;;0.45;;
74487;SDS011;63019;51.080;13.642;2023-08-31T02:37:03;6.28;;;2.10;;
74487;SDS011;63019;51.080;13.642;2023-08-31T02:38:06;0.40;;;0.30;;
74487;SDS011;63019;51.080;13.642;2023-08-31T02:39:08;1.70;;;0.40;;
74487;SDS011;63019;51.080;13.642;2023-08-31T02:40:14;1.02;;;0.40;;
74487;SDS011;63019;51.080;13.642;2023-08-31T02:41:17;0.50;;;0.30;;
74487;SDS011;63019;51.080;13.642;2023-08-31T02:42:19;1.63;;;0.57;;
74487;SDS011;63019;51.080;13.642;2023-08-31T02:43:26;1.38;;;0.47;;
74487;SDS011;63019;51.080;13.642;2023-08-31T02:44:32;1.27;;;0.50;;
74487;SDS011;63019;51.080;13.642;2023-08-31T02:45:39;5.20;;;0.50;;
74487;SDS011;63019;51.080;13.642;2023-08-31T02:46:42;0.55;;;0.40;;
74487;SDS011;63019;51.080;13.642;2023-08-31T02:47:45;0.30;;;0.30;;
74487;SDS011;63019;51.080;13.642;2023-08-31T02:48:48;0.75;;;0.40;;
74487;SDS011;63019;51.080;13.642;2023-08-31T02:49:53;1.05;;;0.40;;
74487;SDS011;63019;51.080;13.642;2023-08-31T02:50:59;1.35;;;0.40;;
74487;SDS011;63019;51.080;13.642;2023-08-31T02:52:05;1.60;;;0.30;;
74487;SDS011;63019;51.080;13.642;2023-08-31T02:53:07;0.40;;;0.30;;
74487;SDS011;63019;51.080;13.642;2023-08-31T02:54:15;0.82;;;0.40;;
74487;SDS011;63019;51.080;13.642;2023-08-31T02:55:17;1.38;;;0.30;;
74487;SDS011;63019;51.080;13.642;2023-08-31T02:56:19;0.80;;;0.40;;
74487;SDS011;63019;51.080;13.642;2023-08-31T02:57:22;1.27;;;0.40;;
74487;SDS011;63019;51.080;13.642;2023-08-31T02:58:25;2.45;;;0.30;;
74487;SDS011;63019;51.080;13.642;2023-08-31T02:59:29;2.55;;;0.40;;
74487;SDS011;63019;51.080;13.642;2023-08-31T03:00:37;0.57;;;0.40;;
74487;SDS011;63019;51.080;13.642;2023-08-31T03:01:48;0.60;;;0.13;;
74487;SDS011;63019;51.080;13.642;2023-08-31T03:02:50;0.45;;;0.40;;
74487;SDS011;63019;51.080;13.642;2023-08-31T03:03:54;1.20;;;0.30;;
74487;SDS011;63019;51.080;13.642;2023-08-31T03:04:56;0.82;;;0.40;;
74487;SDS011;63019;51.080;13.642;2023-08-31T03:05:58;0.93;;;0.45;;
74487;SDS011;63019;51.080;13.642;2023-08-31T03:07:02;1.33;;;0.40;;
74487;SDS011;63019;51.080;13.642;2023-08-31T03:08:05;0.93;;;0.40;;
74487;SDS011;63019;51.080;13.642;2023-08-31T03:09:08;0.93;;;0.45;;
74487;SDS011;63019;51.080;13.642;2023-08-31T03:10:20;1.67;;;0.40;;
74487;SDS011;63019;51.080;13.642;2023-08-31T03:11:23;1.38;;;0.50;;
74487;SDS011;63019;51.080;13.642;2023-08-31T03:12:26;0.47;;;0.30;;
74487;SDS011;63019;51.080;13.642;2023-08-31T03:13:28;1.85;;;0.45;;
74487;SDS011;63019;51.080;13.642;2023-08-31T03:14:36;0.68;;;0.40;;
74487;SDS011;63019;51.080;13.642;2023-08-31T03:15:39;1.25;;;0.55;;
74487;SDS011;63019;51.080;13.642;2023-08-31T03:16:41;1.70;;;0.40;;
74487;SDS011;63019;51.080;13.642;2023-08-31T03:17:46;4.10;;;0.50;;
74487;SDS011;63019;51.080;13.642;2023-08-31T03:18:50;1.15;;;0.40;;
74487;SDS011;63019;51.080;13.642;2023-08-31T03:19:53;1.38;;;0.30;;
74487;SDS011;63019;51.080;13.642;2023-08-31T03:20:55;2.25;;;0.60;;
74487;SDS011;63019;51.080;13.642;2023-08-31T03:21:58;2.10;;;0.50;;
74487;SDS011;63019;51.080;13.642;2023-08-31T03:23:00;0.93;;;0.40;;
74487;SDS011;63019;51.080;13.642;2023-08-31T03:24:14;0.60;;;0.43;;
74487;SDS011;63019;51.080;13.642;2023-08-31T03:25:17;0.77;;;0.47;;
74487;SDS011;63019;51.080;13.642;2023-08-31T03:26:26;1.15;;;0.55;;
74487;SDS011;63019;51.080;13.642;2023-08-31T03:27:37;0.47;;;0.40;;
74487;SDS011;63019;51.080;13.642;2023-08-31T03:28:40;3.30;;;0.60;;
74487;SDS011;63019;51.080;13.642;2023-08-31T03:29:43;1.33;;;0.57;;
74487;SDS011;63019;51.080;13.642;2023-08-31T03:32:26;0.43;;;0.40;;
74487;SDS011;63019;51.080;13.642;2023-08-31T03:33:36;2.17;;;0.32;;
74487;SDS011;63019;51.080;13.642;2023-08-31T03:34:47;1.13;;;0.52;;
74487;SDS011;63019;51.080;13.642;2023-08-31T03:35:52;0.93;;;0.50;;
74487;SDS011;63019;51.080;13.642;2023-08-31T03:37:00;1.13;;;0.40;;
74487;SDS011;63019;51.080;13.642;2023-08-31T03:38:06;1.10;;;0.40;;
74487;SDS011;63019;51.080;13.642;2023-08-31T03:39:16;0.50;;;0.40;;
74487;SDS011;63019;51.080;13.642;2023-08-31T03:40:18;1.17;;;0.40;;
74487;SDS011;63019;51.080;13.642;2023-08-31T03:41:21;2.08;;;0.73;;
74487;SDS011;63019;51.080;13.642;2023-08-31T03:42:29;3.15;;;0.70;;
74487;SDS011;63019;51.080;13.642;2023-08-31T03:43:31;0.65;;;0.38;;
74487;SDS011;63019;51.080;13.642;2023-08-31T03:44:48;0.65;;;0.40;;
74487;SDS011;63019;51.080;13.642;2023-08-31T03:45:53;1.42;;;0.50;;
74487;SDS011;63019;51.080;13.642;2023-08-31T03:47:04;0.55;;;0.40;;
74487;SDS011;63019;51.080;13.642;2023-08-31T03:48:20;0.80;;;0.40;;
74487;SDS011;63019;51.080;13.642;2023-08-31T03:49:26;0.88;;;0.50;;
74487;SDS011;63019;51.080;13.642;2023-08-31T03:50:50;0.43;;;0.40;;
74487;SDS011;63019;51.080;13.642;2023-08-31T03:51:52;4.97;;;0.60;;
74487;SDS011;63019;51.080;13.642;2023-08-31T03:52:58;3.47;;;0.75;;
74487;SDS011;63019;51.080;13.642;2023-08-31T03:54:05;2.08;;;0.50;;
74487;SDS011;63019;51.080;13.642;2023-08-31T03:55:14;0.73;;;0.50;;
74487;SDS011;63019;51.080;13.642;2023-08-31T03:56:16;1.38;;;0.63;;
74487;SDS011;63019;51.080;13.642;2023-08-31T03:57:19;2.45;;;0.40;;
74487;SDS011;63019;51.080;13.642;2023-08-31T03:58:27;2.50;;;0.60;;
74487;SDS011;63019;51.080;13.642;2023-08-31T03:59:30;1.10;;;0.50;;
74487;SDS011;63019;51.080;13.642;2023-08-31T04:00:36;0.98;;;0.47;;
74487;SDS011;63019;51.080;13.642;2023-08-31T04:01:40;1.17;;;0.40;;
74487;SDS011;63019;51.080;13.642;2023-08-31T04:02:51;3.50;;;0.40;;
74487;SDS011;63019;51.080;13.642;2023-08-31T04:03:59;1.48;;;0.70;;
74487;SDS011;63019;51.080;13.642;2023-08-31T04:05:03;1.95;;;0.50;;
74487;SDS011;63019;51.080;13.642;2023-08-31T04:06:12;4.50;;;0.60;;
74487;SDS011;63019;51.080;13.642;2023-08-31T04:07:15;1.00;;;0.50;;
74487;SDS011;63019;51.080;13.642;2023-08-31T04:08:34;1.08;;;0.40;;
74487;SDS011;63019;51.080;13.642;2023-08-31T04:09:36;1.92;;;0.60;;
74487;SDS011;63019;51.080;13.642;2023-08-31T04:10:45;11.27;;;0.60;;
74487;SDS011;63019;51.080;13.642;2023-08-31T04:11:53;0.95;;;0.50;;
74487;SDS011;63019;51.080;13.642;2023-08-31T04:12:56;0.75;;;0.40;;
74487;SDS011;63019;51.080;13.642;2023-08-31T04:14:09;1.93;;;0.60;;
74487;SDS011;63019;51.080;13.642;2023-08-31T04:15:34;0.85;;;0.40;;
74487;SDS011;63019;51.080;13.642;2023-08-31T04:16:42;0.75;;;0.60;;
74487;SDS011;63019;51.080;13.642;2023-08-31T04:17:47;1.25;;;0.40;;
74487;SDS011;63019;51.080;13.642;2023-08-31T04:19:05;0.57;;;0.40;;
74487;SDS011;63019;51.080;13.642;2023-08-31T04:20:07;2.15;;;0.50;;
74487;SDS011;63019;51.080;13.642;2023-08-31T04:21:11;1.13;;;0.40;;
74487;SDS011;63019;51.080;13.642;2023-08-31T04:22:14;2.40;;;0.73;;
74487;SDS011;63019;51.080;13.642;2023-08-31T04:23:19;1.92;;;0.60;;
74487;SDS011;63019;51.080;13.642;2023-08-31T04:24:22;2.47;;;0.60;;
74487;SDS011;63019;51.080;13.642;2023-08-31T04:25:46;4.20;;;0.83;;
74487;SDS011;63019;51.080;13.642;2023-08-31T04:27:01;3.53;;;0.57;;
74487;SDS011;63019;51.080;13.642;2023-08-31T04:28:07;2.05;;;0.80;;
74487;SDS011;63019;51.080;13.642;2023-08-31T04:29:17;1.80;;;0.85;;
74487;SDS011;63019;51.080;13.642;2023-08-31T04:30:39;1.92;;;0.60;;
74487;SDS011;63019;51.080;13.642;2023-08-31T04:31:50;1.90;;;0.60;;
74487;SDS011;63019;51.080;13.642;2023-08-31T04:33:09;2.78;;;0.95;;
74487;SDS011;63019;51.080;13.642;2023-08-31T04:34:59;2.05;;;0.68;;
74487;SDS011;63019;51.080;13.642;2023-08-31T04:37:30;3.47;;;0.50;;
74487;SDS011;63019;51.080;13.642;2023-08-31T04:38:42;0.90;;;0.50;;
74487;SDS011;63019;51.080;13.642;2023-08-31T04:39:54;1.30;;;0.75;;
74487;SDS011;63019;51.080;13.642;2023-08-31T04:41:12;1.50;;;0.60;;
74487;SDS011;63019;51.080;13.642;2023-08-31T04:42:17;2.65;;;0.90;;
74487;SDS011;63019;51.080;13.642;2023-08-31T04:43:38;2.25;;;0.90;;
74487;SDS011;63019;51.080;13.642;2023-08-31T04:45:10;5.50;;;0.70;;
74487;SDS011;63019;51.080;13.642;2023-08-31T04:46:19;3.05;;;0.80;;
74487;SDS011;63019;51.080;13.642;2023-08-31T04:47:31;1.33;;;0.65;;
74487;SDS011;63019;51.080;13.642;2023-08-31T04:48:46;1.65;;;0.80;;
74487;SDS011;63019;51.080;13.642;2023-08-31T04:49:57;3.78;;;0.85;;
74487;SDS011;63019;51.080;13.642;2023-08-31T04:51:09;3.07;;;0.73;;
74487;SDS011;63019;51.080;13.642;2023-08-31T04:52:36;1.73;;;0.70;;
74487;SDS011;63019;51.080;13.642;2023-08-31T04:53:43;1.73;;;0.82;;
74487;SDS011;63019;51.080;13.642;2023-08-31T04:55:00;2.45;;;1.05;;
74487;SDS011;63019;51.080;13.642;2023-08-31T04:56:12;4.80;;;0.80;;
74487;SDS011;63019;51.080;13.642;2023-08-31T04:57:19;2.05;;;0.85;;
74487;SDS011;63019;51.080;13.642;2023-08-31T04:58:29;1.00;;;0.70;;
74487;SDS011;63019;51.080;13.642;2023-08-31T04:59:47;3.15;;;0.93;;
74487;SDS011;63019;51.080;13.642;2023-08-31T05:01:00;3.53;;;0.55;;
74487;SDS011;63019;51.080;13.642;2023-08-31T05:02:02;1.75;;;0.70;;
74487;SDS011;63019;51.080;13.642;2023-08-31T05:03:12;5.13;;;1.00;;
74487;SDS011;63019;51.080;13.642;2023-08-31T05:04:36;1.40;;;0.80;;
74487;SDS011;63019;51.080;13.642;2023-08-31T05:05:43;3.03;;;1.00;;
74487;SDS011;63019;51.080;13.642;2023-08-31T05:06:50;2.72;;;0.80;;
74487;SDS011;63019;51.080;13.642;2023-08-31T05:07:56;3.40;;;0.90;;
74487;SDS011;63019;51.080;13.642;2023-08-31T05:09:01;3.55;;;0.80;;
74487;SDS011;63019;51.080;13.642;2023-08-31T05:10:05;1.60;;;0.75;;
74487;SDS011;63019;51.080;13.642;2023-08-31T05:11:08;1.90;;;1.00;;
74487;SDS011;63019;51.080;13.642;2023-08-31T05:12:39;2.83;;;0.90;;
74487;SDS011;63019;51.080;13.642;2023-08-31T05:13:42;2.53;;;1.00;;
74487;SDS011;63019;51.080;13.642;2023-08-31T05:14:57;2.57;;;1.10;;
74487;SDS011;63019;51.080;13.642;2023-08-31T05:16:01;3.20;;;1.17;;
74487;SDS011;63019;51.080;13.642;2023-08-31T05:17:11;2.38;;;0.90;;
74487;SDS011;63019;51.080;13.642;2023-08-31T05:18:15;1.85;;;1.13;;
74487;SDS011;63019;51.080;13.642;2023-08-31T05:19:34;3.85;;;1.20;;
74487;SDS011;63019;51.080;13.642;2023-08-31T05:20:44;2.35;;;1.02;;
74487;SDS011;63019;51.080;13.642;2023-08-31T05:21:49;3.35;;;1.00;;
74487;SDS011;63019;51.080;13.642;2023-08-31T05:22:58;1.98;;;1.10;;
74487;SDS011;63019;51.080;13.642;2023-08-31T05:25:33;1.90;;;1.10;;
74487;SDS011;63019;51.080;13.642;2023-08-31T05:27:07;5.07;;;1.03;;
74487;SDS011;63019;51.080;13.642;2023-08-31T05:28:52;4.13;;;1.20;;
74487;SDS011;63019;51.080;13.642;2023-08-31T05:29:58;3.35;;;1.20;;
74487;SDS011;63019;51.080;13.642;2023-08-31T05:31:19;3.47;;;1.25;;
74487;SDS011;63019;51.080;13.642;2023-08-31T05:32:22;5.60;;;1.20;;
74487;SDS011;63019;51.080;13.642;2023-08-31T05:33:29;2.70;;;1.27;;
74487;SDS011;63019;51.080;13.642;2023-08-31T05:36:08;2.30;;;1.08;;
74487;SDS011;63019;51.080;13.642;2023-08-31T05:37:27;3.33;;;1.40;;
74487;SDS011;63019;51.080;13.642;2023-08-31T05:38:39;4.90;;;1.10;;
74487;SDS011;63019;51.080;13.642;2023-08-31T05:39:59;4.17;;;1.23;;
74487;SDS011;63019;51.080;13.642;2023-08-31T05:41:30;1.83;;;1.05;;
74487;SDS011;63019;51.080;13.642;2023-08-31T05:42:56;2.80;;;1.20;;
74487;SDS011;63019;51.080;13.642;2023-08-31T05:44:18;5.03;;;0.95;;
74487;SDS011;63019;51.080;13.642;2023-08-31T05:47:40;3.55;;;1.00;;
74487;SDS011;63019;51.080;13.642;2023-08-31T05:49:19;1.95;;;1.05;;
74487;SDS011;63019;51.080;13.642;2023-08-31T05:50:39;3.22;;;1.08;;
74487;SDS011;63019;51.080;13.642;2023-08-31T05:51:56;2.70;;;1.00;;
74487;SDS011;63019;51.080;13.642;2023-08-31T05:53:01;6.25;;;1.10;;
74487;SDS011;63019;51.080;13.642;2023-08-31T05:54:09;3.63;;;1.00;;
74487;SDS011;63019;51.080;13.642;2023-08-31T05:55:14;7.93;;;1.10;;
74487;SDS011;63019;51.080;13.642;2023-08-31T05:56:28;2.72;;;1.00;;
74487;SDS011;63019;51.080;13.642;2023-08-31T05:57:36;4.25;;;1.10;;
74487;SDS011;63019;51.080;13.642;2023-08-31T05:58:44;3.50;;;0.90;;
74487;SDS011;63019;51.080;13.642;2023-08-31T05:59:50;4.35;;;1.10;;
74487;SDS011;63019;51.080;13.642;2023-08-31T06:00:58;3.00;;;0.85;;
74487;SDS011;63019;51.080;13.642;2023-08-31T06:02:29;3.55;;;0.75;;
74487;SDS011;63019;51.080;13.642;2023-08-31T06:03:32;2.28;;;0.90;;
74487;SDS011;63019;51.080;13.642;2023-08-31T06:04:34;3.67;;;1.20;;
74487;SDS011;63019;51.080;13.642;2023-08-31T06:05:45;3.03;;;0.87;;
74487;SDS011;63019;51.080;13.642;2023-08-31T06:06:53;3.78;;;0.90;;
74487;SDS011;63019;51.080;13.642;2023-08-31T06:08:03;4.53;;;1.05;;
74487;SDS011;63019;51.080;13.642;2023-08-31T06:09:14;2.15;;;1.02;;
74487;SDS011;63019;51.080;13.642;2023-08-31T06:10:35;4.05;;;1.00;;
74487;SDS011;63019;51.080;13.642;2023-08-31T06:11:40;3.50;;;1.33;;
74487;SDS011;63019;51.080;13.642;2023-08-31T06:12:55;3.80;;;1.10;;
74487;SDS011;63019;51.080;13.642;2023-08-31T06:14:07;8.27;;;1.02;;
74487;SDS011;63019;51.080;13.642;2023-08-31T06:15:14;4.03;;;1.02;;
74487;SDS011;63019;51.080;13.642;2023-08-31T06:16:21;2.00;;;0.95;;
74487;SDS011;63019;51.080;13.642;2023-08-31T06:17:26;4.30;;;1.10;;
74487;SDS011;63019;51.080;13.642;2023-08-31T06:19:02;5.47;;;1.15;;
74487;SDS011;63019;51.080;13.642;2023-08-31T06:20:19;1.58;;;1.00;;
74487;SDS011;63019;51.080;13.642;2023-08-31T06:21:26;3.03;;;1.15;;
74487;SDS011;63019;51.080;13.642;2023-08-31T06:22:41;2.22;;;0.90;;
74487;SDS011;63019;51.080;13.642;2023-08-31T06:23:47;2.55;;;0.93;;
74487;SDS011;63019;51.080;13.642;2023-08-31T06:25:02;8.55;;;1.88;;
74487;SDS011;63019;51.080;13.642;2023-08-31T06:26:07;3.55;;;0.80;;
74487;SDS011;63019;51.080;13.642;2023-08-31T06:27:10;2.50;;;1.02;;
74487;SDS011;63019;51.080;13.642;2023-08-31T06:28:17;2.90;;;0.98;;
74487;SDS011;63019;51.080;13.642;2023-08-31T06:29:26;2.00;;;1.10;;
74487;SDS011;63019;51.080;13.642;2023-08-31T06:30:35;2.10;;;1.10;;
74487;SDS011;63019;51.080;13.642;2023-08-31T06:31:48;4.43;;;1.00;;
74487;SDS011;63019;51.080;13.642;2023-08-31T06:32:50;3.08;;;1.00;;
74487;SDS011;63019;51.080;13.642;2023-08-31T06:33:58;2.47;;;1.00;;
74487;SDS011;63019;51.080;13.642;2023-08-31T06:35:13;2.85;;;1.10;;
74487;SDS011;63019;51.080;13.642;2023-08-31T06:36:24;2.28;;;1.08;;
74487;SDS011;63019;51.080;13.642;2023-08-31T06:37:27;4.95;;;1.20;;
74487;SDS011;63019;51.080;13.642;2023-08-31T06:38:32;2.42;;;1.13;;
74487;SDS011;63019;51.080;13.642;2023-08-31T06:39:36;2.38;;;1.02;;
74487;SDS011;63019;51.080;13.642;2023-08-31T06:40:51;3.73;;;1.30;;
74487;SDS011;63019;51.080;13.642;2023-08-31T06:41:59;4.30;;;1.08;;
74487;SDS011;63019;51.080;13.642;2023-08-31T06:43:16;3.70;;;1.20;;
74487;SDS011;63019;51.080;13.642;2023-08-31T06:44:21;5.55;;;1.20;;
74487;SDS011;63019;51.080;13.642;2023-08-31T06:45:24;3.35;;;1.10;;
74487;SDS011;63019;51.080;13.642;2023-08-31T06:46:49;2.17;;;1.00;;
74487;SDS011;63019;51.080;13.642;2023-08-31T06:50:54;5.28;;;1.20;;
74487;SDS011;63019;51.080;13.642;2023-08-31T06:52:06;4.07;;;1.63;;
74487;SDS011;63019;51.080;13.642;2023-08-31T06:53:29;6.95;;;1.20;;
74487;SDS011;63019;51.080;13.642;2023-08-31T06:54:50;1.57;;;0.90;;
74487;SDS011;63019;51.080;13.642;2023-08-31T06:57:31;2.88;;;1.05;;
74487;SDS011;63019;51.080;13.642;2023-08-31T06:58:34;3.88;;;1.10;;
74487;SDS011;63019;51.080;13.642;2023-08-31T06:59:39;5.03;;;1.30;;
74487;SDS011;63019;51.080;13.642;2023-08-31T07:00:47;2.33;;;0.93;;
74487;SDS011;63019;51.080;13.642;2023-08-31T07:01:55;4.68;;;1.25;;
74487;SDS011;63019;51.080;13.642;2023-08-31T07:03:17;10.48;;;1.10;;
74487;SDS011;63019;51.080;13.642;2023-08-31T07:04:22;1.50;;;0.88;;
74487;SDS011;63019;51.080;13.642;2023-08-31T07:05:25;7.07;;;1.20;;